UAL792 KOMA-KDEN
Flight info
| Callsign | UAL792 |
|---|---|
| Flight time | 1h 15m |
| Altitude | 36000 |
| Route | OBH BRWRY LAWGR4 |
| Aircraft | B737/M-SDE2E3FGHIRWXY/LB1 |
Departure
| Time | 2026-04-25 15:40 |
|---|---|
| Airport | Eppley Airfield (KOMA) |
Arrival
| Time | 2026-04-25 16:55 |
|---|---|
| Airport | Denver International Airport (KDEN) |
| Time | Latitude | Longitude | Altitude | Speed | Heading |
|---|---|---|---|---|---|
| 2026-04-25 15:08 | 41.30178 | -95.89906 | 984 ft | 0 kts | 162° |
| 2026-04-25 15:29 | 41.30179 | -95.89906 | 988 ft | 2 kts | 162° |
| 2026-04-25 15:29 | 41.30202 | -95.89916 | 986 ft | 2 kts | 162° |
| 2026-04-25 15:30 | 41.30221 | -95.89928 | 984 ft | 4 kts | 131° |
| 2026-04-25 15:30 | 41.30236 | -95.89950 | 984 ft | 4 kts | 133° |
| 2026-04-25 15:30 | 41.30243 | -95.89961 | 984 ft | 0 kts | 133° |
| 2026-04-25 15:32 | 41.30243 | -95.89948 | 984 ft | 2 kts | 77° |
| 2026-04-25 15:33 | 41.30279 | -95.89893 | 986 ft | 5 kts | 53° |
| 2026-04-25 15:33 | 41.30312 | -95.89832 | 984 ft | 10 kts | 47° |
| 2026-04-25 15:33 | 41.30381 | -95.89835 | 985 ft | 12 kts | 327° |
| 2026-04-25 15:33 | 41.30472 | -95.89923 | 987 ft | 21 kts | 325° |
| 2026-04-25 15:34 | 41.30590 | -95.90036 | 983 ft | 21 kts | 324° |
| 2026-04-25 15:34 | 41.30706 | -95.90146 | 983 ft | 20 kts | 324° |
| 2026-04-25 15:34 | 41.30818 | -95.90253 | 992 ft | 19 kts | 324° |
| 2026-04-25 15:34 | 41.30855 | -95.90288 | 983 ft | 19 kts | 324° |
| 2026-04-25 15:35 | 41.31158 | -95.90576 | 988 ft | 20 kts | 324° |
| 2026-04-25 15:35 | 41.31268 | -95.90682 | 990 ft | 17 kts | 324° |
| 2026-04-25 15:35 | 41.31322 | -95.90702 | 984 ft | 5 kts | 36° |
| 2026-04-25 15:36 | 41.31327 | -95.90695 | 984 ft | 0 kts | 48° |
| 2026-04-25 15:38 | 41.31337 | -95.90680 | 991 ft | 5 kts | 50° |
| 2026-04-25 15:38 | 41.31359 | -95.90640 | 988 ft | 5 kts | 54° |
| 2026-04-25 15:38 | 41.31367 | -95.90598 | 986 ft | 3 kts | 119° |
| 2026-04-25 15:38 | 41.31360 | -95.90591 | 990 ft | 0 kts | 142° |
| 2026-04-25 15:39 | 41.31338 | -95.90568 | 992 ft | 21 kts | 143° |
| 2026-04-25 15:39 | 41.31163 | -95.90400 | 992 ft | 71 kts | 144° |
| 2026-04-25 15:39 | 41.30314 | -95.89587 | 988 ft | 151 kts | 143° |
| 2026-04-25 15:40 | 41.29416 | -95.88721 | 1485 ft | 160 kts | 141° |
| 2026-04-25 15:40 | 41.29115 | -95.88421 | 1761 ft | 160 kts | 140° |
| 2026-04-25 15:40 | 41.27602 | -95.86846 | 2691 ft | 183 kts | 142° |
| 2026-04-25 15:40 | 41.26914 | -95.86130 | 3004 ft | 193 kts | 143° |
| 2026-04-25 15:41 | 41.25717 | -95.85337 | 3569 ft | 199 kts | 170° |
| 2026-04-25 15:41 | 41.24275 | -95.85485 | 3880 ft | 226 kts | 197° |
| 2026-04-25 15:41 | 41.22892 | -95.86687 | 4336 ft | 249 kts | 226° |
| 2026-04-25 15:41 | 41.22125 | -95.88775 | 5213 ft | 262 kts | 255° |
| 2026-04-25 15:42 | 41.22146 | -95.91261 | 5994 ft | 274 kts | 274° |
| 2026-04-25 15:42 | 41.22475 | -95.93777 | 6862 ft | 279 kts | 274° |
| 2026-04-25 15:42 | 41.22780 | -95.96332 | 7768 ft | 280 kts | 274° |
| 2026-04-25 15:42 | 41.23063 | -95.98901 | 8716 ft | 283 kts | 273° |
| 2026-04-25 15:43 | 41.23302 | -96.01515 | 9652 ft | 286 kts | 272° |
| 2026-04-25 15:43 | 41.23528 | -96.04163 | 10485 ft | 293 kts | 272° |
| 2026-04-25 15:43 | 41.23751 | -96.06979 | 10751 ft | 320 kts | 272° |
| 2026-04-25 15:43 | 41.23982 | -96.10045 | 10970 ft | 346 kts | 272° |
| 2026-04-25 15:44 | 41.24221 | -96.13297 | 11491 ft | 359 kts | 272° |
| 2026-04-25 15:44 | 41.24463 | -96.16615 | 12339 ft | 362 kts | 272° |
| 2026-04-25 15:44 | 41.24703 | -96.19947 | 13305 ft | 362 kts | 272° |
| 2026-04-25 15:44 | 41.24940 | -96.23287 | 14178 ft | 365 kts | 272° |
| 2026-04-25 15:45 | 41.25176 | -96.26660 | 14966 ft | 369 kts | 272° |
| 2026-04-25 15:45 | 41.25411 | -96.30073 | 15766 ft | 373 kts | 272° |
| 2026-04-25 15:45 | 41.25648 | -96.33525 | 16576 ft | 376 kts | 272° |
| 2026-04-25 15:45 | 41.25804 | -96.35824 | 17103 ft | 379 kts | 272° |
| 2026-04-25 15:46 | 41.26122 | -96.40526 | 18142 ft | 384 kts | 271° |
| 2026-04-25 15:46 | 41.26361 | -96.44080 | 18848 ft | 387 kts | 271° |
| 2026-04-25 15:46 | 41.26600 | -96.47645 | 19652 ft | 386 kts | 272° |
| 2026-04-25 15:46 | 41.26838 | -96.51187 | 20539 ft | 384 kts | 272° |
| 2026-04-25 15:47 | 41.27074 | -96.54730 | 21237 ft | 386 kts | 272° |
| 2026-04-25 15:47 | 41.27306 | -96.58257 | 21864 ft | 390 kts | 272° |
| 2026-04-25 15:47 | 41.27543 | -96.61857 | 22517 ft | 392 kts | 272° |
| 2026-04-25 15:47 | 41.27779 | -96.65475 | 23184 ft | 394 kts | 272° |
| 2026-04-25 15:48 | 41.28016 | -96.69123 | 23795 ft | 396 kts | 272° |
| 2026-04-25 15:48 | 41.28253 | -96.72786 | 24270 ft | 400 kts | 272° |
| 2026-04-25 15:48 | 41.28491 | -96.76487 | 24726 ft | 404 kts | 272° |
| 2026-04-25 15:48 | 41.28730 | -96.80217 | 25187 ft | 407 kts | 272° |
| 2026-04-25 15:49 | 41.28970 | -96.83982 | 25648 ft | 410 kts | 272° |
| 2026-04-25 15:49 | 41.29210 | -96.87765 | 26113 ft | 412 kts | 272° |
| 2026-04-25 15:49 | 41.29451 | -96.91575 | 26568 ft | 415 kts | 272° |
| 2026-04-25 15:49 | 41.29692 | -96.95410 | 26992 ft | 418 kts | 272° |
| 2026-04-25 15:50 | 41.29933 | -96.99270 | 27423 ft | 420 kts | 272° |
| 2026-04-25 15:50 | 41.30174 | -97.03157 | 27848 ft | 423 kts | 272° |
| 2026-04-25 15:50 | 41.30415 | -97.07060 | 28263 ft | 425 kts | 272° |
| 2026-04-25 15:50 | 41.30657 | -97.10993 | 28650 ft | 428 kts | 272° |
| 2026-04-25 15:51 | 41.30898 | -97.14941 | 29048 ft | 430 kts | 271° |
| 2026-04-25 15:51 | 41.31061 | -97.17619 | 29390 ft | 429 kts | 271° |
| 2026-04-25 15:51 | 41.30757 | -97.22769 | 30141 ft | 421 kts | 250° |
| 2026-04-25 15:51 | 41.29344 | -97.26126 | 30662 ft | 418 kts | 230° |
| 2026-04-25 15:52 | 41.27229 | -97.28754 | 31200 ft | 417 kts | 220° |
| 2026-04-25 15:52 | 41.24903 | -97.31059 | 31619 ft | 417 kts | 218° |
| 2026-04-25 15:52 | 41.22497 | -97.33236 | 31968 ft | 419 kts | 215° |
| 2026-04-25 15:52 | 41.20003 | -97.35251 | 32368 ft | 419 kts | 214° |
| 2026-04-25 15:53 | 41.17488 | -97.37201 | 32832 ft | 417 kts | 213° |
| 2026-04-25 15:53 | 41.14976 | -97.39123 | 33284 ft | 415 kts | 213° |
| 2026-04-25 15:53 | 41.12532 | -97.41051 | 33650 ft | 413 kts | 218° |
| 2026-04-25 15:53 | 41.10283 | -97.43403 | 33964 ft | 411 kts | 223° |
| 2026-04-25 15:54 | 41.08131 | -97.45914 | 34122 ft | 414 kts | 224° |
| 2026-04-25 15:54 | 41.05992 | -97.48487 | 34353 ft | 415 kts | 225° |
| 2026-04-25 15:54 | 41.03864 | -97.51066 | 34668 ft | 414 kts | 225° |
| 2026-04-25 15:54 | 41.01739 | -97.53648 | 34968 ft | 414 kts | 225° |
| 2026-04-25 15:55 | 40.99618 | -97.56226 | 35217 ft | 415 kts | 225° |
| 2026-04-25 15:55 | 40.97492 | -97.58811 | 35466 ft | 416 kts | 225° |
| 2026-04-25 15:55 | 40.95384 | -97.61418 | 35835 ft | 412 kts | 229° |
| 2026-04-25 15:55 | 40.93479 | -97.64253 | 35955 ft | 414 kts | 232° |
| 2026-04-25 15:56 | 40.89849 | -97.70208 | 35963 ft | 416 kts | 234° |
| 2026-04-25 15:56 | 40.86292 | -97.76178 | 35947 ft | 410 kts | 234° |
| 2026-04-25 15:57 | 40.83137 | -97.82349 | 35954 ft | 403 kts | 253° |
| 2026-04-25 15:57 | 40.82676 | -97.85933 | 35980 ft | 402 kts | 266° |
| 2026-04-25 15:57 | 40.82658 | -97.89631 | 35979 ft | 403 kts | 269° |
| 2026-04-25 15:58 | 40.82657 | -97.97038 | 35996 ft | 403 kts | 268° |
| 2026-04-25 15:58 | 40.82607 | -98.04446 | 35979 ft | 404 kts | 268° |
| 2026-04-25 15:59 | 40.82562 | -98.11865 | 35968 ft | 404 kts | 268° |
| 2026-04-25 15:59 | 40.82521 | -98.19291 | 35966 ft | 404 kts | 268° |
| 2026-04-25 16:00 | 40.82494 | -98.24215 | 35957 ft | 405 kts | 268° |
| 2026-04-25 16:00 | 40.82433 | -98.34157 | 35963 ft | 405 kts | 268° |
| 2026-04-25 16:01 | 40.82382 | -98.41595 | 35958 ft | 405 kts | 267° |
| 2026-04-25 16:01 | 40.82326 | -98.49048 | 35958 ft | 407 kts | 267° |
| 2026-04-25 16:02 | 40.82265 | -98.56531 | 35943 ft | 408 kts | 267° |
| 2026-04-25 16:02 | 40.82199 | -98.64034 | 35948 ft | 409 kts | 267° |
| 2026-04-25 16:03 | 40.82129 | -98.71550 | 35947 ft | 410 kts | 267° |
| 2026-04-25 16:03 | 40.82053 | -98.79043 | 35941 ft | 411 kts | 266° |
| 2026-04-25 16:04 | 40.81972 | -98.86583 | 35949 ft | 411 kts | 266° |
| 2026-04-25 16:04 | 40.81886 | -98.94147 | 35942 ft | 412 kts | 266° |
| 2026-04-25 16:05 | 40.81795 | -99.01699 | 35944 ft | 412 kts | 266° |
| 2026-04-25 16:06 | 40.81650 | -99.13035 | 35933 ft | 412 kts | 266° |
| 2026-04-25 16:06 | 40.81546 | -99.20611 | 35957 ft | 414 kts | 266° |
| 2026-04-25 16:07 | 40.81436 | -99.28225 | 35949 ft | 416 kts | 266° |
| 2026-04-25 16:07 | 40.81322 | -99.35857 | 35961 ft | 416 kts | 266° |
| 2026-04-25 16:08 | 40.81202 | -99.43498 | 35965 ft | 416 kts | 266° |
| 2026-04-25 16:08 | 40.81078 | -99.51152 | 35969 ft | 417 kts | 266° |
| 2026-04-25 16:09 | 40.80947 | -99.58833 | 35982 ft | 420 kts | 266° |
| 2026-04-25 16:09 | 40.80811 | -99.66518 | 35981 ft | 423 kts | 266° |
| 2026-04-25 16:10 | 40.80669 | -99.74295 | 35985 ft | 424 kts | 266° |
| 2026-04-25 16:10 | 40.80521 | -99.82093 | 35980 ft | 425 kts | 266° |
| 2026-04-25 16:11 | 40.80367 | -99.89905 | 35982 ft | 426 kts | 266° |
| 2026-04-25 16:11 | 40.80209 | -99.97726 | 35976 ft | 426 kts | 266° |
| 2026-04-25 16:12 | 40.80045 | -100.05535 | 35970 ft | 425 kts | 266° |
| 2026-04-25 16:12 | 40.79876 | -100.13329 | 35971 ft | 424 kts | 266° |
| 2026-04-25 16:13 | 40.79702 | -100.21107 | 35973 ft | 424 kts | 266° |
| 2026-04-25 16:13 | 40.79523 | -100.28875 | 35961 ft | 423 kts | 267° |
| 2026-04-25 16:14 | 40.79340 | -100.36620 | 35955 ft | 422 kts | 266° |
| 2026-04-25 16:14 | 40.79152 | -100.44345 | 35962 ft | 421 kts | 266° |
| 2026-04-25 16:15 | 40.78959 | -100.52062 | 35967 ft | 420 kts | 266° |
| 2026-04-25 16:15 | 40.78762 | -100.59765 | 35983 ft | 420 kts | 267° |
| 2026-04-25 16:16 | 40.78405 | -100.67382 | 35966 ft | 418 kts | 259° |
| 2026-04-25 16:16 | 40.77147 | -100.74856 | 35971 ft | 417 kts | 257° |
| 2026-04-25 16:17 | 40.75841 | -100.82310 | 35966 ft | 417 kts | 257° |
| 2026-04-25 16:17 | 40.74560 | -100.89766 | 35972 ft | 416 kts | 257° |
| 2026-04-25 16:18 | 40.73289 | -100.97221 | 35965 ft | 416 kts | 257° |
| 2026-04-25 16:18 | 40.72016 | -101.04664 | 35961 ft | 416 kts | 257° |
| 2026-04-25 16:19 | 40.70736 | -101.12113 | 35962 ft | 417 kts | 257° |
| 2026-04-25 16:19 | 40.69440 | -101.19559 | 35963 ft | 417 kts | 257° |
| 2026-04-25 16:20 | 40.67475 | -101.30748 | 35990 ft | 418 kts | 257° |
| 2026-04-25 16:21 | 40.65510 | -101.41894 | 35988 ft | 418 kts | 257° |
| 2026-04-25 16:21 | 40.64189 | -101.49351 | 35999 ft | 418 kts | 257° |
| 2026-04-25 16:22 | 40.62864 | -101.56802 | 36005 ft | 417 kts | 257° |
| 2026-04-25 16:22 | 40.61537 | -101.64238 | 36008 ft | 417 kts | 257° |
| 2026-04-25 16:23 | 40.60205 | -101.71669 | 36008 ft | 417 kts | 257° |
| 2026-04-25 16:23 | 40.58869 | -101.79093 | 36003 ft | 416 kts | 257° |
| 2026-04-25 16:24 | 40.57531 | -101.86497 | 36000 ft | 416 kts | 257° |
| 2026-04-25 16:24 | 40.56190 | -101.93899 | 35997 ft | 416 kts | 257° |
| 2026-04-25 16:25 | 40.55068 | -102.00049 | 35955 ft | 417 kts | 257° |
| 2026-04-25 16:25 | 40.54614 | -102.02512 | 35756 ft | 421 kts | 256° |
| 2026-04-25 16:25 | 40.53690 | -102.07491 | 35424 ft | 417 kts | 256° |
| 2026-04-25 16:25 | 40.53001 | -102.11195 | 35178 ft | 416 kts | 256° |
| 2026-04-25 16:26 | 40.52311 | -102.14898 | 34946 ft | 418 kts | 256° |
| 2026-04-25 16:26 | 40.51392 | -102.19827 | 34635 ft | 420 kts | 256° |
| 2026-04-25 16:26 | 40.50922 | -102.22344 | 34476 ft | 420 kts | 256° |
| 2026-04-25 16:26 | 40.50224 | -102.26076 | 34243 ft | 421 kts | 256° |
| 2026-04-25 16:27 | 40.49524 | -102.29816 | 34006 ft | 422 kts | 256° |
| 2026-04-25 16:27 | 40.48821 | -102.33564 | 33743 ft | 422 kts | 256° |
| 2026-04-25 16:27 | 40.48116 | -102.37312 | 33466 ft | 423 kts | 256° |
| 2026-04-25 16:27 | 40.47409 | -102.41066 | 33192 ft | 424 kts | 256° |
| 2026-04-25 16:28 | 40.46700 | -102.44822 | 32936 ft | 424 kts | 256° |
| 2026-04-25 16:28 | 40.45990 | -102.48578 | 32672 ft | 424 kts | 256° |
| 2026-04-25 16:28 | 40.45277 | -102.52340 | 31832 ft | 427 kts | 256° |
| 2026-04-25 16:28 | 40.44562 | -102.56109 | 31046 ft | 426 kts | 256° |
| 2026-04-25 16:29 | 40.43850 | -102.59860 | 30445 ft | 420 kts | 256° |
| 2026-04-25 16:29 | 40.43147 | -102.63546 | 30132 ft | 409 kts | 256° |
| 2026-04-25 16:29 | 40.42467 | -102.67107 | 29884 ft | 397 kts | 256° |
| 2026-04-25 16:29 | 40.41798 | -102.70590 | 29534 ft | 390 kts | 256° |
| 2026-04-25 16:30 | 40.41138 | -102.74009 | 29260 ft | 397 kts | 256° |
| 2026-04-25 16:30 | 40.40453 | -102.77557 | 28934 ft | 402 kts | 256° |
| 2026-04-25 16:30 | 40.39767 | -102.81106 | 28614 ft | 400 kts | 256° |
| 2026-04-25 16:30 | 40.39086 | -102.84621 | 28309 ft | 394 kts | 256° |
| 2026-04-25 16:31 | 40.38415 | -102.88082 | 28002 ft | 390 kts | 256° |
| 2026-04-25 16:31 | 40.37749 | -102.91513 | 27700 ft | 387 kts | 256° |
| 2026-04-25 16:31 | 40.37087 | -102.94919 | 27407 ft | 384 kts | 256° |
| 2026-04-25 16:31 | 40.36426 | -102.98312 | 27112 ft | 383 kts | 256° |
| 2026-04-25 16:32 | 40.35767 | -103.01692 | 26824 ft | 382 kts | 256° |
| 2026-04-25 16:32 | 40.35109 | -103.05069 | 26533 ft | 382 kts | 256° |
| 2026-04-25 16:32 | 40.34453 | -103.08443 | 26236 ft | 382 kts | 256° |
| 2026-04-25 16:32 | 40.33796 | -103.11813 | 25947 ft | 382 kts | 256° |
| 2026-04-25 16:33 | 40.33140 | -103.15182 | 25677 ft | 381 kts | 256° |
| 2026-04-25 16:33 | 40.32484 | -103.18540 | 25384 ft | 380 kts | 256° |
| 2026-04-25 16:33 | 40.31829 | -103.21890 | 25098 ft | 379 kts | 256° |
| 2026-04-25 16:33 | 40.31175 | -103.25226 | 24803 ft | 377 kts | 256° |
| 2026-04-25 16:34 | 40.30521 | -103.28550 | 24515 ft | 375 kts | 255° |
| 2026-04-25 16:34 | 40.29866 | -103.31853 | 24230 ft | 374 kts | 255° |
| 2026-04-25 16:34 | 40.29211 | -103.35140 | 23945 ft | 372 kts | 255° |
| 2026-04-25 16:34 | 40.28559 | -103.38406 | 23660 ft | 370 kts | 255° |
| 2026-04-25 16:35 | 40.27906 | -103.41671 | 23330 ft | 369 kts | 255° |
| 2026-04-25 16:35 | 40.27258 | -103.44915 | 23011 ft | 367 kts | 255° |
| 2026-04-25 16:35 | 40.26621 | -103.48097 | 22711 ft | 365 kts | 255° |
| 2026-04-25 16:35 | 40.25978 | -103.51307 | 22428 ft | 364 kts | 255° |
| 2026-04-25 16:36 | 40.25335 | -103.54509 | 22149 ft | 363 kts | 255° |
| 2026-04-25 16:36 | 40.25119 | -103.55584 | 22056 ft | 362 kts | 255° |
| 2026-04-25 16:36 | 40.24064 | -103.60875 | 21604 ft | 361 kts | 255° |
| 2026-04-25 16:36 | 40.23435 | -103.64053 | 21326 ft | 360 kts | 255° |
| 2026-04-25 16:37 | 40.22808 | -103.67226 | 21062 ft | 360 kts | 255° |
| 2026-04-25 16:37 | 40.22180 | -103.70393 | 20792 ft | 360 kts | 255° |
| 2026-04-25 16:37 | 40.21552 | -103.73556 | 20516 ft | 359 kts | 255° |
| 2026-04-25 16:37 | 40.20922 | -103.76723 | 20244 ft | 359 kts | 255° |
| 2026-04-25 16:38 | 40.20293 | -103.79879 | 19972 ft | 358 kts | 255° |
| 2026-04-25 16:38 | 40.19665 | -103.83029 | 19703 ft | 356 kts | 255° |
| 2026-04-25 16:38 | 40.19044 | -103.86131 | 19413 ft | 347 kts | 255° |
| 2026-04-25 16:38 | 40.18441 | -103.89140 | 19144 ft | 337 kts | 255° |
| 2026-04-25 16:39 | 40.17666 | -103.91977 | 18890 ft | 326 kts | 242° |
| 2026-04-25 16:39 | 40.16524 | -103.94466 | 18712 ft | 313 kts | 238° |
| 2026-04-25 16:39 | 40.15365 | -103.96849 | 18511 ft | 309 kts | 238° |
| 2026-04-25 16:39 | 40.14212 | -103.99217 | 18327 ft | 310 kts | 238° |
| 2026-04-25 16:40 | 40.13057 | -104.01615 | 18108 ft | 313 kts | 239° |
| 2026-04-25 16:40 | 40.11908 | -104.04018 | 17886 ft | 310 kts | 239° |
| 2026-04-25 16:40 | 40.10789 | -104.06371 | 17670 ft | 307 kts | 239° |
| 2026-04-25 16:40 | 40.09669 | -104.08734 | 17472 ft | 304 kts | 239° |
| 2026-04-25 16:41 | 40.08559 | -104.11078 | 17290 ft | 302 kts | 239° |
| 2026-04-25 16:41 | 40.07812 | -104.12652 | 17163 ft | 302 kts | 239° |
| 2026-04-25 16:41 | 40.05754 | -104.18362 | 16714 ft | 300 kts | 255° |
| 2026-04-25 16:42 | 40.05231 | -104.21000 | 16516 ft | 301 kts | 256° |
| 2026-04-25 16:42 | 40.04719 | -104.23654 | 16313 ft | 302 kts | 256° |
| 2026-04-25 16:42 | 40.04202 | -104.26315 | 16112 ft | 303 kts | 256° |
| 2026-04-25 16:42 | 40.03678 | -104.28975 | 15911 ft | 303 kts | 256° |
| 2026-04-25 16:43 | 40.03149 | -104.31634 | 15715 ft | 302 kts | 256° |
| 2026-04-25 16:43 | 40.02617 | -104.34283 | 15509 ft | 302 kts | 256° |
| 2026-04-25 16:43 | 40.02085 | -104.36926 | 15302 ft | 300 kts | 256° |
| 2026-04-25 16:43 | 40.01554 | -104.39555 | 15117 ft | 299 kts | 256° |
| 2026-04-25 16:44 | 40.01025 | -104.42166 | 14916 ft | 297 kts | 256° |
| 2026-04-25 16:44 | 40.00497 | -104.44761 | 14716 ft | 295 kts | 256° |
| 2026-04-25 16:44 | 39.99894 | -104.47316 | 14511 ft | 294 kts | 249° |
| 2026-04-25 16:44 | 39.99023 | -104.49725 | 14317 ft | 294 kts | 245° |
| 2026-04-25 16:45 | 39.98084 | -104.52084 | 14129 ft | 293 kts | 244° |
| 2026-04-25 16:45 | 39.97147 | -104.54436 | 13942 ft | 292 kts | 245° |
| 2026-04-25 16:45 | 39.96226 | -104.56795 | 13748 ft | 292 kts | 245° |
| 2026-04-25 16:45 | 39.95318 | -104.59156 | 13537 ft | 291 kts | 245° |
| 2026-04-25 16:46 | 39.94417 | -104.61517 | 13340 ft | 291 kts | 245° |
| 2026-04-25 16:46 | 39.93520 | -104.63873 | 13140 ft | 290 kts | 245° |
| 2026-04-25 16:46 | 39.92627 | -104.66224 | 12935 ft | 290 kts | 245° |
| 2026-04-25 16:46 | 39.92338 | -104.66986 | 12877 ft | 289 kts | 245° |
| 2026-04-25 16:47 | 39.90848 | -104.70926 | 12550 ft | 289 kts | 245° |
| 2026-04-25 16:47 | 39.89959 | -104.73271 | 12356 ft | 288 kts | 245° |
| 2026-04-25 16:47 | 39.89073 | -104.75606 | 12163 ft | 288 kts | 245° |
| 2026-04-25 16:47 | 39.88154 | -104.77924 | 11961 ft | 289 kts | 238° |
| 2026-04-25 16:48 | 39.86749 | -104.79720 | 11753 ft | 287 kts | 213° |
| 2026-04-25 16:48 | 39.84935 | -104.80669 | 11560 ft | 279 kts | 193° |
| 2026-04-25 16:48 | 39.83026 | -104.80850 | 11391 ft | 272 kts | 184° |
| 2026-04-25 16:48 | 39.81160 | -104.80883 | 11203 ft | 265 kts | 184° |
| 2026-04-25 16:49 | 39.79351 | -104.80911 | 11016 ft | 254 kts | 184° |
| 2026-04-25 16:49 | 39.77623 | -104.80941 | 10822 ft | 245 kts | 184° |
| 2026-04-25 16:49 | 39.75921 | -104.80975 | 10562 ft | 245 kts | 184° |
| 2026-04-25 16:49 | 39.74202 | -104.81017 | 10197 ft | 249 kts | 184° |
| 2026-04-25 16:50 | 39.72509 | -104.81035 | 10090 ft | 237 kts | 178° |
| 2026-04-25 16:50 | 39.70938 | -104.80377 | 9669 ft | 242 kts | 147° |
| 2026-04-25 16:50 | 39.69861 | -104.78743 | 9362 ft | 240 kts | 116° |
| 2026-04-25 16:50 | 39.69316 | -104.76748 | 9145 ft | 232 kts | 109° |
| 2026-04-25 16:51 | 39.69020 | -104.74703 | 8817 ft | 228 kts | 91° |
| 2026-04-25 16:51 | 39.69240 | -104.72709 | 8592 ft | 220 kts | 68° |
| 2026-04-25 16:51 | 39.70055 | -104.71048 | 8279 ft | 220 kts | 43° |
| 2026-04-25 16:51 | 39.70440 | -104.70601 | 8225 ft | 218 kts | 36° |
| 2026-04-25 16:52 | 39.72613 | -104.69101 | 7834 ft | 206 kts | 9° |
| 2026-04-25 16:52 | 39.73988 | -104.68970 | 7636 ft | 194 kts | 358° |
| 2026-04-25 16:52 | 39.75317 | -104.68919 | 7322 ft | 190 kts | 2° |
| 2026-04-25 16:52 | 39.76568 | -104.68848 | 7186 ft | 169 kts | 0° |
| 2026-04-25 16:53 | 39.78702 | -104.68819 | 6949 ft | 138 kts | 360° |
| 2026-04-25 16:53 | 39.79664 | -104.68804 | 6854 ft | 139 kts | 0° |
| 2026-04-25 16:53 | 39.80629 | -104.68786 | 6721 ft | 141 kts | 0° |
| 2026-04-25 16:54 | 39.81620 | -104.68782 | 6531 ft | 141 kts | 0° |
| 2026-04-25 16:54 | 39.82585 | -104.68780 | 6295 ft | 139 kts | 2° |
| 2026-04-25 16:54 | 39.83573 | -104.68766 | 5993 ft | 141 kts | 3° |
| 2026-04-25 16:54 | 39.84541 | -104.68736 | 5761 ft | 141 kts | 2° |
| 2026-04-25 16:55 | 39.85518 | -104.68728 | 5580 ft | 141 kts | 1° |
| 2026-04-25 16:55 | 39.86497 | -104.68721 | 5402 ft | 139 kts | 2° |
| 2026-04-25 16:55 | 39.87399 | -104.68706 | 5363 ft | 107 kts | 360° |
| 2026-04-25 16:55 | 39.87929 | -104.68699 | 5367 ft | 46 kts | 0° |
| 2026-04-25 16:56 | 39.88229 | -104.68697 | 5364 ft | 41 kts | 0° |
| 2026-04-25 16:56 | 39.88490 | -104.68650 | 5364 ft | 35 kts | 23° |
| 2026-04-25 16:56 | 39.88609 | -104.68521 | 5365 ft | 17 kts | 109° |
| 2026-04-25 16:56 | 39.88502 | -104.68481 | 5364 ft | 17 kts | 180° |
| 2026-04-25 16:57 | 39.88389 | -104.68482 | 5364 ft | 16 kts | 180° |
| 2026-04-25 16:57 | 39.88351 | -104.68482 | 5363 ft | 16 kts | 180° |
| 2026-04-25 16:57 | 39.88120 | -104.68484 | 5364 ft | 23 kts | 179° |
| 2026-04-25 16:57 | 39.87964 | -104.68486 | 5364 ft | 22 kts | 181° |
| 2026-04-25 16:58 | 39.87812 | -104.68488 | 5365 ft | 22 kts | 180° |
| 2026-04-25 16:58 | 39.87664 | -104.68489 | 5362 ft | 21 kts | 180° |
| 2026-04-25 16:58 | 39.87515 | -104.68490 | 5364 ft | 24 kts | 180° |
| 2026-04-25 16:58 | 39.87332 | -104.68494 | 5363 ft | 26 kts | 181° |
| 2026-04-25 16:59 | 39.87155 | -104.68496 | 5363 ft | 25 kts | 180° |
| 2026-04-25 16:59 | 39.86990 | -104.68497 | 5364 ft | 23 kts | 180° |
| 2026-04-25 16:59 | 39.86833 | -104.68500 | 5364 ft | 22 kts | 181° |
| 2026-04-25 16:59 | 39.86680 | -104.68501 | 5363 ft | 22 kts | 180° |
| 2026-04-25 17:00 | 39.86532 | -104.68502 | 5363 ft | 21 kts | 180° |
| 2026-04-25 17:00 | 39.86388 | -104.68504 | 5364 ft | 20 kts | 180° |
| 2026-04-25 17:00 | 39.86224 | -104.68505 | 5363 ft | 25 kts | 180° |
| 2026-04-25 17:00 | 39.86057 | -104.68507 | 5363 ft | 23 kts | 180° |
| 2026-04-25 17:01 | 39.85899 | -104.68510 | 5363 ft | 22 kts | 180° |
| 2026-04-25 17:01 | 39.85746 | -104.68511 | 5363 ft | 22 kts | 178° |
| 2026-04-25 17:01 | 39.85688 | -104.68360 | 5365 ft | 21 kts | 89° |
| 2026-04-25 17:01 | 39.85695 | -104.68172 | 5365 ft | 20 kts | 82° |
| 2026-04-25 17:02 | 39.85767 | -104.68113 | 5363 ft | 11 kts | 358° |
| 2026-04-25 17:02 | 39.85801 | -104.68114 | 5364 ft | 0 kts | 360° |